WetterOnline ( https://www.wetteronline.de )

Wetter aktuell Boizenburg

Aktuelles Wetter: Boizenburg (46m)

6-stündlich | Neueste Meldungen
Ortszeit Temperatur Wetter
Di, 16.04. 14:00 10.0° C bedeckt
Di, 16.04. 8:00 5.6° C bedeckt
Di, 16.04. 2:00 5.5° C bedeckt
Mo, 15.04. 20:00 10.4° C Sprühregen
Mo, 15.04. 14:00 13.9° C bedeckt
Mo, 15.04. 8:00 6.2° C bedeckt
Mo, 15.04. 2:00 6.8° C bedeckt
So, 14.04. 20:00 11.6° C wolkig
Ortszeit Temperatur Wetter
Di, 16.04. 16:00 8.6° C leichter Regen
Di, 16.04. 15:30 8.3° C Sprühregen
Di, 16.04. 15:20 8.3° C Sprühregen
Di, 16.04. 15:10 9.2° C bedeckt
Di, 16.04. 15:00 7.9° C leichter Regen
Di, 16.04. 14:50 7.9° C leichter Regen
Di, 16.04. 14:30 9.9° C bedeckt
Di, 16.04. 14:00 10.0° C bedeckt
Di, 16.04. 13:30 9.4° C bedeckt
Di, 16.04. 13:00 9.3° C bedeckt
Ortszeit Relative Feuchte Sichtweite
Di, 16.04. 14:00 65% 50 km
Di, 16.04. 8:00 83% >70 km
Di, 16.04. 2:00 83% 45 km
Mo, 15.04. 20:00 67% 30 km
Mo, 15.04. 14:00 45% 60 km
Mo, 15.04. 8:00 85% 30 km
Mo, 15.04. 2:00 80% 35 km
So, 14.04. 20:00 47% 65 km
Ortszeit Relative Feuchte Sichtweite
Di, 16.04. 16:00 77% 40 km
Di, 16.04. 15:30 75% 55 km
Di, 16.04. 15:20 75% -
Di, 16.04. 15:10 70% -
Di, 16.04. 15:00 79% 19 km
Di, 16.04. 14:50 79% -
Di, 16.04. 14:30 66% 65 km
Di, 16.04. 14:00 65% 50 km
Di, 16.04. 13:30 69% 45 km
Di, 16.04. 13:00 72% 65 km
Ortszeit Niederschlagsmenge Niederschlagsart
Di, 16.04. 14:00 0.1 l/m2 in 6 Std. Sprühregen
Di, 16.04. 8:00 2 l/m2 in 12 Std. -
Di, 16.04. 2:00 2 l/m2 in 6 Std. Regen
Mo, 15.04. 20:00 0.1 l/m2 in 12 Std. Regen
Mo, 15.04. 14:00 0.0 l/m2 in 6 Std. -
Mo, 15.04. 8:00 0.0 l/m2 in 12 Std. -
Mo, 15.04. 2:00 0.0 l/m2 in 6 Std. -
So, 14.04. 20:00 0.0 l/m2 in 12 Std. -
Ortszeit Niederschlagsmenge Niederschlagsart
Di, 16.04. 16:00 keine Meldung -
Di, 16.04. 15:30 <0.05 l/m2 in 30 Min -
Di, 16.04. 15:20 keine Meldung -
Di, 16.04. 15:10 keine Meldung -
Di, 16.04. 15:00 0.1 l/m2 in 1 Std. Regen
Di, 16.04. 14:50 keine Meldung -
Di, 16.04. 14:30 0.0 l/m2 in 30 Min -
Di, 16.04. 14:00 0.0 l/m2 in 1 Std. Sprühregen
Di, 16.04. 13:30 0.0 l/m2 in 30 Min -
Di, 16.04. 13:00 <0.05 l/m2 in 1 Std. Sprühregen
Ortszeit Stärke Spitze Richtung
km/h Bft. km/h Grad Sektor
Di, 16.04. 14:00 11 2 37 280° W
Di, 16.04. 8:00 14 3 40 240° SW
Di, 16.04. 2:00 29 5 54 240° SW
Mo, 15.04. 20:00 11 2 36 180° S
Mo, 15.04. 14:00 13 3 31 220° SW
Mo, 15.04. 8:00 4 1 22 150° SO
Mo, 15.04. 2:00 6 1 33 230° SW
So, 14.04. 20:00 17 3 52 270° W
Ortszeit Stärke Spitze Richtung
km/h Bft. km/h Grad Sektor
Di, 16.04. 16:00 13 3 35 330° NW
Di, 16.04. 15:30 17 3 35 330° NW
Di, 16.04. 15:20 17 3 - 330° NW
Di, 16.04. 15:10 15 3 - 330° NW
Di, 16.04. 15:00 13 3 31 280° W
Di, 16.04. 14:50 13 3 - 280° W
Di, 16.04. 14:30 11 2 29 290° W
Di, 16.04. 14:00 11 2 22 280° W
Di, 16.04. 13:30 9 2 20 280° W
Di, 16.04. 13:00 9 2 20 300° NW
Ortszeit Untergrenze Bedeckung Gattung
total tief tief mittel hoch
Di, 16.04. 14:00 630 m 8/8 8/8 - - -
Di, 16.04. 8:00 540 m 8/8 8/8 - - -
Di, 16.04. 2:00 510 m 8/8 8/8 - - -
Mo, 15.04. 20:00 1440 m 8/8 8/8 - - -
Mo, 15.04. 14:00 1500 m 8/8 8/8 - - -
Mo, 15.04. 8:00 2400 m 8/8 8/8 - - -
Mo, 15.04. 2:00 4200 m 8/8 8/8 - - -
So, 14.04. 20:00 7500 m 8/8 0/8 - - -
Ortszeit Bedeckungsgrad in Achtel und Wolkenuntergrenze
Di, 16.04. 16:00 5(1380m) 7(1500m) 7(1800m)
Di, 16.04. 15:30 1(810m) 4(1290m) 8(1500m)
Di, 16.04. 15:20 1(810m) 4(1290m) 8(1500m)
Di, 16.04. 15:10 8
Di, 16.04. 15:00 6(690m) 6(990m) 8(1500m)
Di, 16.04. 14:50 6(690m) 6(990m) 8(1500m)
Di, 16.04. 14:30 1(750m) 8(2400m) 8(3300m)
Di, 16.04. 14:00 1(630m) 8(2400m) 8(4200m)
Di, 16.04. 13:30 6(660m) 8(1290m)
Di, 16.04. 13:00 3(690m) 8(1290m) 8(3600m)
Ortszeit Luftdruck NN (hPa) Tendenz (hPa in 3 Std.)
Di, 16.04. 14:00 1000 + 1,4
Di, 16.04. 8:00 997 + 0,7
Di, 16.04. 2:00 997 + 0,2
Mo, 15.04. 20:00 996 - 3,3
Mo, 15.04. 14:00 1004 - 3,8
Mo, 15.04. 8:00 1011 - 2,1
Mo, 15.04. 2:00 1015 - 2,1
So, 14.04. 20:00 1018 - 0,6
Ortszeit Luftdruck NN (hPa) Tendenz (hPa in 3 Std.)
Di, 16.04. 16:00 1001 + 1,6
Di, 16.04. 15:30 1001 + 1,3
Di, 16.04. 15:20 1001 keine Meldung
Di, 16.04. 15:10 1000 keine Meldung
Di, 16.04. 15:00 1000 + 1,2
Di, 16.04. 14:50 1000 keine Meldung
Di, 16.04. 14:30 1000 + 1,2
Di, 16.04. 14:00 1000 + 1,4
Di, 16.04. 13:30 1000 + 1,4
Di, 16.04. 13:00 999 + 1,5
Ortszeit Schneehöhe (cm)
Di, 16.04. 14:00 0
Di, 16.04. 8:00 0
Di, 16.04. 2:00 0
Mo, 15.04. 20:00 0
Mo, 15.04. 14:00 0
Mo, 15.04. 8:00 0
Mo, 15.04. 2:00 0
So, 14.04. 20:00 0
Ortszeit Schneehöhe (cm)
Di, 16.04. 16:00 -
Di, 16.04. 15:30 0
Di, 16.04. 15:20 0
Di, 16.04. 15:10 -
Di, 16.04. 15:00 0
Di, 16.04. 14:50 0
Di, 16.04. 14:30 0
Di, 16.04. 14:00 0
Di, 16.04. 13:30 0
Di, 16.04. 13:00 0
Link zu dieser Seite / Seite empfehlen

Das Wetter in ...